Ktima, Cyprus
Current Conditions -  °F | °C
As of 1:00 PM on Thursday 23 Oct 2014 (Local Time) from LCPH Reporting Station
Scattered Clouds Scattered Clouds  
Wind Chill: 26°   Ceiling: Unl
Heat Index: 27°   Visibility: 6mi
Dew Point: 15°   Wind: 3mph
Humidity: 51%   Direction: NA
Pressure: 29.97"   Gusts: NA
Location:  34.76°N, 32.42°E
Report Text: LCPH 231000Z VRB03KT 9999 FEW020TCU SCT040 26/15 Q1015
Loading
Personal Weather Stations






























Interactive Weather Map
Tropical Storm Tracking
New forecast layout! Learn more

10-Day Weather Forecast

Advertisements
Track Severe Weather on mobile